Time;durP1;ratioP1;P1;durP2;ratioP2;P2;SDS_P1;SDS_P2;PMS_P1;PMS_P2;Temp;Humidity;BMP_temperature;BMP_pressure;BME280_temperature;BME280_humidity;BME280_pressure;Samples;Min_cycle;Max_cycle;Signal;HPM_P1;HPM_P2
2022/04/27 00:01:35;;;;;;;11.15;7.43;;;;;;;;;;6154703;28;20063;-73
2022/04/27 00:04:37;;;;;;;10.07;7.30;;;;;;;;;;6151289;28;20056;-74
2022/04/27 00:07:38;;;;;;;10.00;7.25;;;;;;;;;;6150556;28;20363;-75
2022/04/27 00:10:40;;;;;;;13.32;8.05;;;;;;;;;;6150965;28;20346;-74
2022/04/27 00:13:41;;;;;;;15.15;7.88;;;;;;;;;;6154554;28;20114;-75
2022/04/27 00:16:45;;;;;;;13.45;8.10;;;;;;;;;;6146899;28;20051;-74
2022/04/27 00:19:46;;;;;;;14.23;7.73;;;;;;;;;;6149053;28;20351;-73
2022/04/27 00:22:48;;;;;;;15.02;8.05;;;;;;;;;;6152496;28;20450;-74
2022/04/27 00:25:49;;;;;;;13.52;8.00;;;;;;;;;;6154193;28;20130;-73
2022/04/27 00:28:51;;;;;;;15.38;9.02;;;;;;;;;;6155604;28;20085;-74
2022/04/27 00:31:54;;;;;;;11.65;8.57;;;;;;;;;;6159127;28;20086;-75
2022/04/27 00:34:57;;;;;;;14.55;8.93;;;;;;;;;;6160190;28;20369;-75
2022/04/27 00:37:58;;;;;;;13.75;9.25;;;;;;;;;;6151569;28;20063;-74
2022/04/27 00:41:00;;;;;;;14.45;9.18;;;;;;;;;;6155988;28;20152;-75
2022/04/27 00:44:02;;;;;;;16.35;8.75;;;;;;;;;;6154104;28;20051;-75
2022/04/27 00:47:05;;;;;;;17.92;9.05;;;;;;;;;;6153726;28;20393;-75
2022/04/27 00:50:09;;;;;;;14.60;9.30;;;;;;;;;;6148966;28;20051;-74
2022/04/27 00:53:10;;;;;;;13.65;10.15;;;;;;;;;;6150936;28;20115;-75
2022/04/27 00:56:13;;;;;;;14.77;10.18;;;;;;;;;;6145186;28;20051;-75
2022/04/27 00:59:14;;;;;;;16.10;10.27;;;;;;;;;;6142726;28;20054;-75
2022/04/27 01:02:17;;;;;;;16.92;10.65;;;;;;;;;;6153862;28;20331;-75
2022/04/27 01:05:21;;;;;;;16.70;11.18;;;;;;;;;;6154028;28;20346;-74
2022/04/27 01:08:22;;;;;;;15.75;10.45;;;;;;;;;;6153957;28;20161;-75
2022/04/27 01:11:24;;;;;;;14.88;11.10;;;;;;;;;;6157564;28;20099;-75
2022/04/27 01:14:26;;;;;;;11.93;9.38;;;;;;;;;;6157834;28;20402;-75
2022/04/27 01:17:29;;;;;;;12.15;9.65;;;;;;;;;;6151054;28;20060;-75
2022/04/27 01:20:33;;;;;;;12.95;9.48;;;;;;;;;;6153436;28;22820;-76
2022/04/27 01:23:34;;;;;;;13.25;9.02;;;;;;;;;;6158616;28;20056;-76
2022/04/27 01:26:37;;;;;;;17.98;9.00;;;;;;;;;;6151951;28;20095;-76
2022/04/27 01:29:38;;;;;;;14.50;9.07;;;;;;;;;;6150979;28;20286;-75
2022/04/27 01:32:40;;;;;;;13.05;8.45;;;;;;;;;;6154557;28;20054;-75
2022/04/27 01:35:43;;;;;;;11.02;8.52;;;;;;;;;;6155210;28;20055;-76
2022/04/27 01:38:45;;;;;;;14.75;8.90;;;;;;;;;;6151508;28;20067;-76
2022/04/27 01:41:46;;;;;;;13.77;8.93;;;;;;;;;;6152751;28;20443;-74
2022/04/27 01:44:48;;;;;;;13.43;8.68;;;;;;;;;;6152985;28;20059;-75
2022/04/27 01:47:49;;;;;;;11.98;8.75;;;;;;;;;;6151550;28;20107;-75
2022/04/27 01:50:58;;;;;;;10.07;8.75;;;;;;;;;;6175841;28;20050;-75
2022/04/27 01:54:16;;;;;;;11.98;9.27;;;;;;;;;;6171587;28;20125;-75
2022/04/27 01:57:18;;;;;;;12.68;8.77;;;;;;;;;;6166723;28;20381;-75
2022/04/27 02:00:20;;;;;;;12.82;9.38;;;;;;;;;;6156340;28;20099;-75
2022/04/27 02:03:22;;;;;;;13.25;9.55;;;;;;;;;;6155637;28;20679;-76
2022/04/27 02:06:25;;;;;;;12.43;9.30;;;;;;;;;;6150960;28;20055;-76
2022/04/27 02:09:26;;;;;;;12.25;8.77;;;;;;;;;;6151449;28;20223;-76
2022/04/27 02:12:28;;;;;;;15.02;9.15;;;;;;;;;;6151211;28;20281;-75
2022/04/27 02:15:30;;;;;;;12.80;9.35;;;;;;;;;;6164896;28;20063;-75
2022/04/27 02:18:31;;;;;;;12.20;8.73;;;;;;;;;;6155798;28;20330;-75
2022/04/27 02:21:34;;;;;;;14.77;9.68;;;;;;;;;;6166719;28;20356;-77
2022/04/27 02:24:36;;;;;;;13.60;10.43;;;;;;;;;;6180292;28;20149;-76
2022/04/27 02:27:37;;;;;;;13.88;9.15;;;;;;;;;;6178563;28;20078;-75
2022/04/27 02:30:39;;;;;;;12.23;9.07;;;;;;;;;;6176020;28;20102;-75
2022/04/27 02:33:40;;;;;;;14.57;9.10;;;;;;;;;;6173975;28;20105;-75
2022/04/27 02:36:43;;;;;;;11.98;9.10;;;;;;;;;;6171581;28;20051;-75
2022/04/27 02:39:45;;;;;;;12.38;8.30;;;;;;;;;;6169638;28;20058;-74
2022/04/27 02:42:47;;;;;;;10.75;8.18;;;;;;;;;;6172867;28;20144;-75
2022/04/27 02:45:49;;;;;;;12.88;9.05;;;;;;;;;;6171212;28;20054;-75
2022/04/27 02:52:10;;;;;;;11.57;8.18;;;;;;;;;;6179483;28;20078;-75
2022/04/27 02:55:12;;;;;;;12.57;8.98;;;;;;;;;;6173236;28;20059;-75
2022/04/27 02:58:14;;;;;;;13.38;8.95;;;;;;;;;;6150984;28;20059;-74
2022/04/27 03:01:15;;;;;;;14.57;9.27;;;;;;;;;;6147590;28;20047;-75
2022/04/27 03:04:17;;;;;;;12.10;8.82;;;;;;;;;;6150797;28;20052;-75
2022/04/27 03:07:20;;;;;;;12.27;8.48;;;;;;;;;;6150109;28;20093;-75
2022/04/27 03:10:21;;;;;;;14.60;9.02;;;;;;;;;;6149902;28;20099;-76
2022/04/27 03:13:23;;;;;;;11.02;7.50;;;;;;;;;;6153289;28;20397;-75
2022/04/27 03:16:25;;;;;;;9.93;7.20;;;;;;;;;;6147919;28;20067;-75
2022/04/27 03:19:27;;;;;;;9.98;6.80;;;;;;;;;;6152930;28;20330;-76
2022/04/27 03:22:30;;;;;;;10.60;7.45;;;;;;;;;;6153709;28;20055;-75
2022/04/27 03:25:33;;;;;;;8.45;5.88;;;;;;;;;;6155114;28;20056;-76
2022/04/27 03:28:34;;;;;;;7.60;5.97;;;;;;;;;;6156138;28;20292;-75
2022/04/27 03:31:36;;;;;;;9.55;6.65;;;;;;;;;;6172911;28;20098;-75
2022/04/27 03:34:37;;;;;;;7.40;5.47;;;;;;;;;;6172712;28;20121;-75
2022/04/27 03:37:41;;;;;;;11.35;6.35;;;;;;;;;;6171520;28;20054;-74
2022/04/27 03:40:42;;;;;;;8.87;6.17;;;;;;;;;;6168760;28;20067;-75
2022/04/27 03:43:44;;;;;;;9.32;5.53;;;;;;;;;;6176909;28;20501;-76
2022/04/27 03:46:46;;;;;;;7.93;4.50;;;;;;;;;;6178629;28;20097;-76
2022/04/27 03:49:48;;;;;;;6.40;4.38;;;;;;;;;;6173767;28;20051;-74
2022/04/27 03:52:51;;;;;;;10.63;4.60;;;;;;;;;;6166528;23;20058;-75
2022/04/27 03:55:53;;;;;;;5.82;4.18;;;;;;;;;;6202731;28;20058;-75
2022/04/27 03:58:55;;;;;;;6.13;4.53;;;;;;;;;;6201689;28;20050;-75
2022/04/27 04:01:56;;;;;;;8.23;4.75;;;;;;;;;;6196018;28;20109;-74
2022/04/27 04:04:58;;;;;;;9.05;4.70;;;;;;;;;;6224576;23;20431;-76
2022/04/27 04:08:01;;;;;;;7.50;4.50;;;;;;;;;;6936021;23;20276;-75
2022/04/27 04:11:03;;;;;;;7.28;4.47;;;;;;;;;;6178038;28;20062;-76
2022/04/27 04:14:05;;;;;;;8.50;5.00;;;;;;;;;;6181770;28;20081;-76
2022/04/27 05:07:38;;;;;;;7.38;5.22;;;;;;;;;;7293553;22;20062;-72
2022/04/27 05:10:40;;;;;;;7.05;4.75;;;;;;;;;;6209849;28;20336;-71
2022/04/27 05:13:42;;;;;;;11.27;6.20;;;;;;;;;;6219804;28;20062;-71
2022/04/27 05:16:43;;;;;;;11.27;5.32;;;;;;;;;;6214700;28;20058;-72
2022/04/27 05:19:45;;;;;;;12.68;5.15;;;;;;;;;;6222102;28;20289;-73
2022/04/27 05:22:48;;;;;;;11.70;5.70;;;;;;;;;;6226799;28;20054;-73
2022/04/27 05:25:49;;;;;;;7.05;4.97;;;;;;;;;;6225229;28;20446;-73
2022/04/27 05:32:12;;;;;;;11.88;4.53;;;;;;;;;;6212239;28;20121;-72
2022/04/27 05:35:13;;;;;;;10.90;5.38;;;;;;;;;;6225738;28;20049;-72
2022/04/27 05:38:16;;;;;;;9.27;5.35;;;;;;;;;;6220410;28;20065;-71
2022/04/27 05:41:18;;;;;;;8.35;4.85;;;;;;;;;;6225299;28;20112;-74
2022/04/27 05:44:21;;;;;;;9.77;4.85;;;;;;;;;;6224971;28;20049;-74
2022/04/27 05:47:25;;;;;;;7.63;5.05;;;;;;;;;;6224312;28;20387;-74
2022/04/27 05:50:26;;;;;;;7.33;4.80;;;;;;;;;;6220454;28;22582;-72
2022/04/27 05:53:29;;;;;;;8.10;4.85;;;;;;;;;;6225593;28;20456;-73
2022/04/27 05:56:31;;;;;;;13.70;4.43;;;;;;;;;;6219851;28;20054;-74
2022/04/27 05:59:32;;;;;;;8.73;4.53;;;;;;;;;;6222341;28;20050;-74
2022/04/27 06:02:34;;;;;;;8.88;4.68;;;;;;;;;;6219742;28;20268;-74
2022/04/27 06:05:36;;;;;;;7.18;4.63;;;;;;;;;;6226055;28;20061;-74
2022/04/27 06:08:39;;;;;;;7.50;4.88;;;;;;;;;;6212684;28;20054;-75
2022/04/27 06:11:40;;;;;;;9.30;5.63;;;;;;;;;;6212064;28;20108;-74
2022/04/27 06:14:42;;;;;;;10.57;4.20;;;;;;;;;;6208923;28;20047;-74
2022/04/27 06:17:43;;;;;;;7.50;4.95;;;;;;;;;;6205295;28;20068;-74
2022/04/27 06:20:45;;;;;;;6.03;4.85;;;;;;;;;;6208577;28;20432;-75
2022/04/27 06:23:48;;;;;;;11.93;5.35;;;;;;;;;;6204734;28;20057;-74
2022/04/27 06:26:50;;;;;;;10.88;5.53;;;;;;;;;;6206334;28;20062;-74
2022/04/27 06:29:51;;;;;;;10.57;5.50;;;;;;;;;;6208057;28;20372;-74
2022/04/27 06:32:53;;;;;;;8.88;5.47;;;;;;;;;;6203799;28;20055;-74
2022/04/27 06:35:54;;;;;;;11.40;6.05;;;;;;;;;;6207605;28;20292;-74
2022/04/27 06:38:57;;;;;;;10.00;6.38;;;;;;;;;;6209575;28;20050;-74
2022/04/27 06:41:59;;;;;;;9.57;6.57;;;;;;;;;;6206977;28;20066;-74
2022/04/27 06:45:01;;;;;;;10.75;6.15;;;;;;;;;;6207659;28;20064;-74
2022/04/27 06:48:03;;;;;;;9.85;6.32;;;;;;;;;;6205044;28;20050;-74
2022/04/27 06:51:04;;;;;;;13.02;6.63;;;;;;;;;;6207378;28;20316;-74
2022/04/27 06:54:07;;;;;;;12.80;6.50;;;;;;;;;;6208408;28;20051;-75
2022/04/27 06:57:09;;;;;;;8.00;6.33;;;;;;;;;;6207507;28;20478;-74
2022/04/27 07:00:12;;;;;;;13.23;6.53;;;;;;;;;;6205972;28;20349;-73
2022/04/27 07:03:13;;;;;;;10.43;6.05;;;;;;;;;;6209620;28;20336;-73
2022/04/27 07:06:15;;;;;;;11.40;7.25;;;;;;;;;;6208321;28;20104;-73
2022/04/27 07:09:18;;;;;;;9.98;7.05;;;;;;;;;;6208908;28;20050;-73
2022/04/27 07:12:20;;;;;;;12.20;7.80;;;;;;;;;;6209163;28;20050;-73
2022/04/27 07:15:22;;;;;;;9.60;7.03;;;;;;;;;;6202398;28;20046;-74
2022/04/27 07:18:23;;;;;;;14.20;9.52;;;;;;;;;;6207244;28;20054;-73
2022/04/27 07:21:25;;;;;;;12.80;9.02;;;;;;;;;;6204590;28;20328;-74
2022/04/27 07:24:28;;;;;;;11.35;8.93;;;;;;;;;;6203626;28;20046;-73
2022/04/27 07:27:31;;;;;;;9.93;8.57;;;;;;;;;;6206502;28;20109;-74
2022/04/27 07:30:33;;;;;;;12.18;8.60;;;;;;;;;;6208463;28;20058;-74
2022/04/27 07:33:35;;;;;;;12.75;8.02;;;;;;;;;;6214059;28;20069;-74
2022/04/27 07:36:36;;;;;;;11.38;8.85;;;;;;;;;;6212053;28;20093;-74
2022/04/27 07:39:39;;;;;;;12.40;9.73;;;;;;;;;;6215599;28;20084;-74
2022/04/27 07:42:41;;;;;;;13.88;10.85;;;;;;;;;;6214851;28;20058;-75
2022/04/27 07:45:44;;;;;;;12.38;10.15;;;;;;;;;;6207913;28;20423;-75
2022/04/27 07:48:45;;;;;;;13.48;9.68;;;;;;;;;;6214428;28;20054;-74
2022/04/27 07:51:47;;;;;;;13.27;11.32;;;;;;;;;;6212923;28;20359;-75
2022/04/27 07:54:50;;;;;;;14.85;12.05;;;;;;;;;;6213746;28;20096;-74
2022/04/27 07:57:52;;;;;;;14.82;11.73;;;;;;;;;;6213655;28;20070;-74
2022/04/27 08:00:53;;;;;;;13.80;10.93;;;;;;;;;;6211752;28;20058;-74
2022/04/27 08:03:55;;;;;;;15.93;10.13;;;;;;;;;;6209579;28;20089;-74
2022/04/27 08:06:57;;;;;;;14.60;9.57;;;;;;;;;;6211878;28;20165;-74
2022/04/27 08:10:00;;;;;;;10.82;9.52;;;;;;;;;;6212138;28;20248;-74
2022/04/27 08:13:01;;;;;;;11.45;9.05;;;;;;;;;;6216917;28;20062;-75
2022/04/27 08:16:03;;;;;;;12.45;9.60;;;;;;;;;;6211320;28;20408;-74
2022/04/27 08:19:05;;;;;;;14.32;9.95;;;;;;;;;;6208098;28;20395;-75
2022/04/27 08:22:08;;;;;;;10.93;8.65;;;;;;;;;;6207233;28;20113;-74
2022/04/27 08:25:11;;;;;;;;;;;;;;;;;;6210939;28;20288;-75
2022/04/27 08:28:13;;;;;;;12.10;8.90;;;;;;;;;;6209575;28;19922;-74
2022/04/27 08:31:17;;;;;;;11.75;9.18;;;;;;;;;;6211780;28;20350;-75
2022/04/27 08:34:18;;;;;;;11.43;9.05;;;;;;;;;;6211546;28;20054;-73
2022/04/27 08:37:20;;;;;;;10.80;9.30;;;;;;;;;;6213331;28;20054;-73
2022/04/27 08:40:24;;;;;;;13.98;9.25;;;;;;;;;;6207067;28;20057;-73
2022/04/27 08:43:25;;;;;;;12.25;9.15;;;;;;;;;;6211370;28;20050;-70
2022/04/27 08:46:29;;;;;;;41.50;33.28;;;;;;;;;;6207325;28;20060;-71
2022/04/27 08:49:33;;;;;;;24.70;21.15;;;;;;;;;;6213322;28;20046;-67
2022/04/27 08:52:35;;;;;;;10.40;9.30;;;;;;;;;;6209050;28;20364;-69
2022/04/27 08:55:40;;;;;;;12.82;9.98;;;;;;;;;;6211513;28;20382;-73
2022/04/27 08:58:41;;;;;;;14.10;11.40;;;;;;;;;;6209429;28;20058;-73
2022/04/27 09:01:43;;;;;;;12.35;10.40;;;;;;;;;;6212715;28;20062;-73
2022/04/27 09:04:44;;;;;;;12.70;10.32;;;;;;;;;;6208483;28;20371;-73
2022/04/27 09:07:50;;;;;;;11.32;9.98;;;;;;;;;;6210657;28;20062;-73
2022/04/27 09:11:11;;;;;;;11.82;9.93;;;;;;;;;;6211204;28;20062;-73
2022/04/27 09:14:13;;;;;;;12.85;10.52;;;;;;;;;;6211118;28;20042;-73
2022/04/27 09:20:50;;;;;;;14.30;10.23;;;;;;;;;;6207005;28;20095;-73
2022/04/27 09:24:02;;;;;;;12.68;8.93;;;;;;;;;;6208901;28;20088;-72
2022/04/27 09:27:18;;;;;;;13.70;10.60;;;;;;;;;;6209943;28;20058;-75
2022/04/27 09:30:26;;;;;;;13.30;10.30;;;;;;;;;;6211478;28;20070;-72
2022/04/27 09:33:34;;;;;;;12.20;10.65;;;;;;;;;;6210826;28;20058;-75
2022/04/27 09:36:36;;;;;;;11.45;9.93;;;;;;;;;;6206280;28;20121;-72
2022/04/27 09:39:38;;;;;;;12.23;11.03;;;;;;;;;;6210555;28;20117;-75
2022/04/27 09:42:44;;;;;;;10.38;9.38;;;;;;;;;;6209023;28;20359;-68
2022/04/27 09:45:46;;;;;;;20.20;15.43;;;;;;;;;;6211420;28;20096;-68
2022/04/27 09:48:47;;;;;;;14.38;10.65;;;;;;;;;;6207661;28;20121;-68
2022/04/27 09:51:50;;;;;;;16.25;14.55;;;;;;;;;;6207958;28;20348;-68
2022/04/27 09:54:53;;;;;;;10.70;9.63;;;;;;;;;;6208763;28;20066;-70
2022/04/27 09:57:56;;;;;;;14.40;9.90;;;;;;;;;;6208358;28;20324;-68
2022/04/27 10:00:58;;;;;;;12.18;9.57;;;;;;;;;;6206417;28;20109;-67
2022/04/27 10:04:01;;;;;;;11.35;9.82;;;;;;;;;;6208395;28;20184;-67
2022/04/27 10:07:04;;;;;;;13.32;10.70;;;;;;;;;;6209724;28;20098;-68
2022/04/27 10:10:06;;;;;;;13.60;9.68;;;;;;;;;;6209123;28;20348;-69
2022/04/27 10:13:12;;;;;;;14.48;10.88;;;;;;;;;;6209421;28;20108;-68
2022/04/27 10:16:16;;;;;;;13.38;10.13;;;;;;;;;;6207609;28;20151;-69
2022/04/27 10:19:18;;;;;;;13.35;9.75;;;;;;;;;;6209971;28;20096;-69
2022/04/27 10:22:28;;;;;;;11.88;10.02;;;;;;;;;;6207793;28;20046;-70
2022/04/27 10:25:30;;;;;;;10.93;8.88;;;;;;;;;;6212830;28;20390;-69
2022/04/27 10:28:34;;;;;;;10.13;8.82;;;;;;;;;;6204489;28;20062;-69
2022/04/27 10:31:58;;;;;;;11.10;7.80;;;;;;;;;;6211265;28;20061;-70
2022/04/27 10:35:27;;;;;;;10.98;9.65;;;;;;;;;;6207213;28;20089;-70
2022/04/27 10:38:29;;;;;;;11.07;9.63;;;;;;;;;;6208175;28;20058;-69
2022/04/27 10:41:30;;;;;;;9.50;8.47;;;;;;;;;;6208022;28;20089;-70
2022/04/27 10:45:05;;;;;;;9.40;8.43;;;;;;;;;;6207765;28;20057;-70
2022/04/27 10:48:09;;;;;;;10.55;8.90;;;;;;;;;;6202197;28;20124;-71
2022/04/27 10:51:11;;;;;;;9.75;8.73;;;;;;;;;;6205804;28;20061;-70
2022/04/27 10:54:13;;;;;;;10.68;8.05;;;;;;;;;;6207954;28;20249;-70
2022/04/27 10:57:33;;;;;;;;;;;;;;;;;;6203577;28;20101;-70
2022/04/27 11:00:34;;;;;;;9.65;6.80;;;;;;;;;;6210342;28;19925;-71
2022/04/27 11:03:40;;;;;;;9.02;7.80;;;;;;;;;;6208946;28;20336;-70
2022/04/27 11:07:29;;;;;;;11.57;8.88;;;;;;;;;;6210411;28;20163;-70
2022/04/27 11:10:31;;;;;;;10.02;9.00;;;;;;;;;;6212644;28;20288;-68
2022/04/27 11:13:33;;;;;;;8.95;8.02;;;;;;;;;;6213102;28;20285;-70
2022/04/27 11:16:43;;;;;;;;;;;;;;;;;;6210605;28;20068;-70
2022/04/27 11:19:46;;;;;;;8.88;8.02;;;;;;;;;;6205153;28;20036;-69
2022/04/27 11:22:47;;;;;;;9.95;8.93;;;;;;;;;;6210249;28;20050;-69
2022/04/27 11:25:51;;;;;;;9.60;8.60;;;;;;;;;;6210728;28;20058;-69
2022/04/27 11:28:54;;;;;;;9.93;7.82;;;;;;;;;;6207083;28;20050;-70
2022/04/27 11:31:55;;;;;;;10.18;8.35;;;;;;;;;;6207407;28;20109;-68
2022/04/27 11:34:58;;;;;;;9.57;8.50;;;;;;;;;;6209446;28;20050;-68
2022/04/27 11:38:02;;;;;;;9.00;8.20;;;;;;;;;;6212308;28;20260;-69
2022/04/27 11:41:04;;;;;;;8.75;7.85;;;;;;;;;;6210989;28;20245;-70
2022/04/27 11:44:06;;;;;;;8.60;7.30;;;;;;;;;;6212158;28;20062;-69
2022/04/27 11:47:27;;;;;;;9.85;7.53;;;;;;;;;;6212761;28;20050;-69
2022/04/27 11:50:32;;;;;;;8.03;7.33;;;;;;;;;;6208391;28;20129;-69
2022/04/27 11:53:42;;;;;;;8.18;7.05;;;;;;;;;;6208422;28;20157;-69
2022/04/27 11:56:45;;;;;;;8.88;8.07;;;;;;;;;;6208409;28;20134;-69
2022/04/27 11:59:48;;;;;;;9.45;7.97;;;;;;;;;;6210191;28;20387;-69
2022/04/27 12:02:50;;;;;;;8.73;7.18;;;;;;;;;;6205182;28;20197;-70
2022/04/27 12:05:54;;;;;;;11.05;7.60;;;;;;;;;;6211052;28;20093;-69
2022/04/27 12:09:00;;;;;;;7.30;6.38;;;;;;;;;;6210139;28;20062;-69
2022/04/27 12:12:08;;;;;;;8.90;7.15;;;;;;;;;;6208018;28;20054;-69
2022/04/27 12:15:12;;;;;;;8.60;7.55;;;;;;;;;;6213849;28;20522;-70
2022/04/27 12:18:18;;;;;;;8.25;7.00;;;;;;;;;;6208509;28;20056;-69
2022/04/27 12:21:24;;;;;;;7.18;6.38;;;;;;;;;;6207788;28;21471;-69
2022/04/27 12:24:26;;;;;;;7.85;7.05;;;;;;;;;;6211698;28;20057;-71
2022/04/27 12:27:28;;;;;;;8.13;7.32;;;;;;;;;;6210695;28;20092;-70
2022/04/27 12:30:30;;;;;;;9.45;8.55;;;;;;;;;;6208918;28;20110;-68
2022/04/27 12:33:33;;;;;;;12.10;8.07;;;;;;;;;;6210186;28;20077;-71
2022/04/27 12:39:56;;;;;;;15.18;13.18;;;;;;;;;;6210753;28;20054;-68
2022/04/27 12:43:01;;;;;;;9.68;7.88;;;;;;;;;;6207411;28;20065;-76
2022/04/27 12:46:11;;;;;;;9.73;7.70;;;;;;;;;;6210438;28;20050;-73
2022/04/27 12:49:13;;;;;;;9.20;7.70;;;;;;;;;;6209631;28;20050;-71
2022/04/27 12:52:20;;;;;;;8.15;7.35;;;;;;;;;;6210087;28;20335;-74
2022/04/27 12:55:22;;;;;;;8.68;7.85;;;;;;;;;;6208749;28;20101;-73
2022/04/27 12:58:24;;;;;;;8.70;7.78;;;;;;;;;;6210074;28;20050;-70
2022/04/27 13:01:29;;;;;;;9.55;8.57;;;;;;;;;;6212761;28;20055;-71
2022/04/27 13:04:32;;;;;;;7.63;6.85;;;;;;;;;;6210621;28;20330;-72
2022/04/27 13:07:35;;;;;;;8.60;7.80;;;;;;;;;;6213028;28;20089;-70
2022/04/27 13:13:55;;;;;;;9.15;7.97;;;;;;;;;;6206379;28;20053;-75
2022/04/27 13:16:57;;;;;;;9.25;8.45;;;;;;;;;;6204485;28;20062;-72
2022/04/27 13:19:59;;;;;;;8.05;7.25;;;;;;;;;;6208882;28;20272;-72
2022/04/27 13:23:02;;;;;;;6.93;6.18;;;;;;;;;;6202424;28;20093;-72
2022/04/27 13:26:04;;;;;;;7.43;6.30;;;;;;;;;;6206459;28;20273;-72
2022/04/27 13:29:05;;;;;;;15.43;7.25;;;;;;;;;;6202824;28;20065;-74
2022/04/27 13:32:08;;;;;;;9.00;8.02;;;;;;;;;;6208620;28;20068;-78
2022/04/27 13:35:10;;;;;;;7.55;6.30;;;;;;;;;;6206938;28;20057;-74
2022/04/27 13:38:13;;;;;;;12.00;10.70;;;;;;;;;;6207197;28;20803;-73
2022/04/27 13:41:15;;;;;;;11.38;8.98;;;;;;;;;;6206428;28;20050;-77
2022/04/27 13:44:16;;;;;;;7.72;5.90;;;;;;;;;;6203721;28;20069;-74
2022/04/27 13:47:18;;;;;;;7.65;6.38;;;;;;;;;;6202751;28;20325;-75
2022/04/27 13:50:20;;;;;;;;;;;;;;;;;;6204372;28;20141;-76
2022/04/27 13:53:23;;;;;;;8.30;5.93;;;;;;;;;;6203344;28;19958;-74
2022/04/27 13:56:25;;;;;;;8.40;5.40;;;;;;;;;;6204779;28;20124;-74
2022/04/27 13:59:26;;;;;;;6.45;5.15;;;;;;;;;;6207311;28;20050;-74
2022/04/27 14:02:28;;;;;;;9.18;5.53;;;;;;;;;;6204245;28;20091;-74
2022/04/27 14:05:30;;;;;;;5.78;5.20;;;;;;;;;;6208019;28;20130;-74
2022/04/27 14:08:33;;;;;;;4.95;4.35;;;;;;;;;;6202859;28;20245;-75
2022/04/27 14:14:53;;;;;;;7.03;5.28;;;;;;;;;;6207225;28;20042;-75
2022/04/27 14:18:15;;;;;;;5.68;4.90;;;;;;;;;;6206821;28;20070;-75
2022/04/27 14:21:17;;;;;;;6.30;4.90;;;;;;;;;;6179751;28;20114;-74
2022/04/27 14:24:21;;;;;;;5.78;5.18;;;;;;;;;;6176138;28;20059;-78
2022/04/27 14:27:22;;;;;;;6.78;5.30;;;;;;;;;;6177911;28;20114;-74
2022/04/27 14:30:24;;;;;;;24.92;22.13;;;;;;;;;;6178844;28;20054;-72
2022/04/27 14:33:26;;;;;;;8.45;7.53;;;;;;;;;;6178691;28;20054;-73
2022/04/27 14:36:27;;;;;;;48.80;44.05;;;;;;;;;;6178214;28;20051;-73
2022/04/27 14:39:30;;;;;;;5.63;5.13;;;;;;;;;;6179742;28;20062;-71
2022/04/27 14:42:32;;;;;;;5.85;5.18;;;;;;;;;;6183672;28;20366;-72
2022/04/27 14:45:34;;;;;;;;;;;;;;;;;;6179763;28;20129;-71
2022/04/27 14:48:40;;;;;;;5.50;4.53;;;;;;;;;;6177559;28;20108;-70
2022/04/27 14:51:42;;;;;;;6.28;4.40;;;;;;;;;;6179294;28;20241;-72
2022/04/27 14:54:45;;;;;;;;;;;;;;;;;;6181143;28;20066;-72
2022/04/27 14:57:47;;;;;;;5.32;4.82;;;;;;;;;;6179123;28;19921;-72
2022/04/27 15:00:49;;;;;;;14.68;13.25;;;;;;;;;;6178054;28;20051;-72
2022/04/27 15:03:51;;;;;;;6.13;5.53;;;;;;;;;;6182561;28;20050;-74
2022/04/27 15:06:52;;;;;;;6.88;5.97;;;;;;;;;;6181869;28;20059;-72
2022/04/27 15:09:55;;;;;;;12.15;10.60;;;;;;;;;;6181449;28;20104;-72
2022/04/27 15:12:57;;;;;;;5.03;3.80;;;;;;;;;;6180911;28;20054;-74
2022/04/27 15:15:59;;;;;;;4.28;3.88;;;;;;;;;;6180305;28;20055;-72
2022/04/27 15:19:01;;;;;;;4.03;3.50;;;;;;;;;;6183154;28;20106;-71
2022/04/27 15:25:23;;;;;;;12.02;10.80;;;;;;;;;;6178310;28;20047;-75
2022/04/27 15:28:25;;;;;;;21.75;19.42;;;;;;;;;;6183350;28;20314;-76
2022/04/27 15:31:27;;;;;;;18.35;15.43;;;;;;;;;;6177566;28;20334;-74
2022/04/27 15:34:30;;;;;;;4.65;3.47;;;;;;;;;;6181424;28;20054;-76
2022/04/27 15:37:32;;;;;;;5.63;3.83;;;;;;;;;;6183392;28;20065;-76
2022/04/27 15:40:35;;;;;;;4.55;3.30;;;;;;;;;;6178243;28;20066;-78
2022/04/27 15:43:37;;;;;;;18.33;16.45;;;;;;;;;;6179660;28;20236;-76
2022/04/27 15:46:39;;;;;;;7.55;6.68;;;;;;;;;;6175324;28;20370;-75
2022/04/27 15:49:40;;;;;;;27.88;23.60;;;;;;;;;;6179246;28;20055;-75
2022/04/27 15:52:42;;;;;;;7.50;6.57;;;;;;;;;;6176628;28;20422;-76
2022/04/27 15:55:46;;;;;;;6.97;4.70;;;;;;;;;;6184108;28;20085;-79
2022/04/27 15:58:48;;;;;;;7.25;4.22;;;;;;;;;;6183023;28;20077;-76
2022/04/27 16:01:49;;;;;;;11.77;10.57;;;;;;;;;;6183910;28;20249;-76
2022/04/27 16:04:51;;;;;;;11.80;10.05;;;;;;;;;;6184326;28;20133;-76
2022/04/27 16:07:53;;;;;;;8.93;6.38;;;;;;;;;;6186892;28;20055;-77
2022/04/27 16:10:56;;;;;;;10.45;5.95;;;;;;;;;;6182073;28;20077;-78
2022/04/27 16:13:58;;;;;;;5.80;4.50;;;;;;;;;;6185384;28;20242;-75
2022/04/27 16:16:59;;;;;;;4.07;3.67;;;;;;;;;;6184182;28;20235;-74
2022/04/27 16:20:02;;;;;;;5.53;4.05;;;;;;;;;;6183593;28;20047;-75
2022/04/27 16:23:08;;;;;;;7.93;4.30;;;;;;;;;;6187529;28;20057;-74
2022/04/27 16:26:11;;;;;;;7.55;3.92;;;;;;;;;;6185368;28;20281;-73
2022/04/27 16:29:13;;;;;;;;;;;;;;;;;;6184613;28;20341;-73
2022/04/27 16:32:14;;;;;;;6.68;4.03;;;;;;;;;;6182763;28;19925;-74
2022/04/27 16:35:16;;;;;;;6.32;5.13;;;;;;;;;;6183876;28;20149;-73
2022/04/27 16:38:19;;;;;;;7.63;4.60;;;;;;;;;;6186178;28;20066;-74
2022/04/27 16:41:22;;;;;;;6.93;5.43;;;;;;;;;;6185321;28;20078;-69
2022/04/27 16:44:24;;;;;;;9.48;5.20;;;;;;;;;;6185141;28;20054;-68
2022/04/27 16:47:26;;;;;;;7.18;5.60;;;;;;;;;;6184934;28;20078;-70
2022/04/27 16:50:28;;;;;;;6.63;4.68;;;;;;;;;;6187043;28;20061;-70
2022/04/27 16:53:30;;;;;;;8.43;5.03;;;;;;;;;;6187767;28;20050;-70
2022/04/27 16:56:33;;;;;;;6.65;5.10;;;;;;;;;;6187559;28;20070;-69
2022/04/27 16:59:35;;;;;;;9.10;5.63;;;;;;;;;;6186276;28;20109;-71
2022/04/27 17:02:37;;;;;;;7.57;5.30;;;;;;;;;;6181453;28;20058;-71
2022/04/27 17:05:38;;;;;;;8.25;5.68;;;;;;;;;;6181750;28;20245;-72
2022/04/27 17:08:42;;;;;;;7.55;5.70;;;;;;;;;;6185866;28;20074;-72
2022/04/27 17:11:45;;;;;;;7.15;5.35;;;;;;;;;;6184210;28;20325;-73
2022/04/27 17:14:47;;;;;;;9.85;6.40;;;;;;;;;;6183908;28;20054;-73
2022/04/27 17:17:48;;;;;;;9.48;5.70;;;;;;;;;;6180720;28;20312;-73
2022/04/27 17:20:50;;;;;;;9.48;5.13;;;;;;;;;;6183355;28;20058;-73
2022/04/27 17:23:52;;;;;;;8.70;5.28;;;;;;;;;;6189813;28;20126;-72
2022/04/27 17:30:16;;;;;;;7.43;4.90;;;;;;;;;;6184423;28;20042;-70
2022/04/27 17:33:17;;;;;;;;;;;;;;;;;;6180942;28;20072;-70
2022/04/27 17:36:19;;;;;;;9.77;5.22;;;;;;;;;;6186093;28;20149;-71
2022/04/27 17:39:23;;;;;;;7.03;4.43;;;;;;;;;;6185940;28;20042;-70
2022/04/27 17:42:35;;;;;;;6.82;4.03;;;;;;;;;;6184295;28;20050;-73
2022/04/27 17:45:40;;;;;;;10.27;4.85;;;;;;;;;;6183199;28;20329;-73
2022/04/27 17:48:43;;;;;;;6.10;4.30;;;;;;;;;;6181508;28;20061;-75
2022/04/27 17:51:45;;;;;;;6.70;4.57;;;;;;;;;;6186540;28;20054;-78
2022/04/27 17:54:47;;;;;;;11.80;4.75;;;;;;;;;;6184305;28;20055;-77
2022/04/27 17:57:50;;;;;;;8.27;4.63;;;;;;;;;;6186547;28;20054;-76
2022/04/27 18:00:52;;;;;;;9.05;4.35;;;;;;;;;;6182584;28;20054;-72
2022/04/27 18:03:54;;;;;;;8.27;4.95;;;;;;;;;;6179875;28;20050;-72
2022/04/27 18:06:56;;;;;;;5.63;4.28;;;;;;;;;;6181375;28;20369;-71
2022/04/27 18:09:57;;;;;;;6.65;4.53;;;;;;;;;;6183584;28;20054;-71
2022/04/27 18:13:00;;;;;;;8.20;4.50;;;;;;;;;;6183052;28;20062;-72
2022/04/27 18:16:02;;;;;;;6.10;4.78;;;;;;;;;;6183355;28;20050;-72
2022/04/27 18:19:04;;;;;;;7.47;4.93;;;;;;;;;;6184143;28;20055;-73
2022/04/27 18:22:07;;;;;;;8.38;5.40;;;;;;;;;;6182289;28;20066;-72
2022/04/27 18:25:10;;;;;;;7.63;4.55;;;;;;;;;;6185017;28;20407;-70
2022/04/27 18:28:14;;;;;;;7.40;4.60;;;;;;;;;;6186452;28;20078;-71
2022/04/27 18:31:17;;;;;;;7.07;4.72;;;;;;;;;;6182649;28;20062;-69
2022/04/27 18:34:18;;;;;;;9.93;4.83;;;;;;;;;;6183404;28;20129;-72
2022/04/27 18:37:20;;;;;;;9.55;6.35;;;;;;;;;;6186296;28;20120;-75
2022/04/27 18:40:22;;;;;;;8.05;4.90;;;;;;;;;;6179746;28;20043;-74
2022/04/27 18:50:07;;;;;;;8.18;4.78;;;;;;;;;;6184032;28;20050;-74
2022/04/27 18:53:09;;;;;;;11.27;5.78;;;;;;;;;;6182864;28;20105;-73
2022/04/27 18:56:11;;;;;;;10.13;5.75;;;;;;;;;;6181999;28;20098;-75
2022/04/27 18:59:14;;;;;;;8.45;5.43;;;;;;;;;;6183383;28;20259;-75
2022/04/27 19:02:18;;;;;;;7.63;5.07;;;;;;;;;;6182674;28;20114;-75
2022/04/27 19:05:20;;;;;;;12.00;5.20;;;;;;;;;;6182549;28;20050;-74
2022/04/27 19:08:21;;;;;;;9.40;5.85;;;;;;;;;;6181702;28;20058;-75
2022/04/27 19:11:23;;;;;;;7.55;5.25;;;;;;;;;;6182977;28;20062;-73
2022/04/27 19:14:26;;;;;;;9.45;5.43;;;;;;;;;;6182416;28;20055;-74
2022/04/27 19:17:28;;;;;;;9.23;5.80;;;;;;;;;;6182386;28;20054;-73
2022/04/27 19:20:30;;;;;;;8.18;5.65;;;;;;;;;;6186915;28;20106;-73
2022/04/27 19:23:33;;;;;;;11.27;6.03;;;;;;;;;;6182906;28;20297;-73
2022/04/27 19:26:36;;;;;;;8.55;5.93;;;;;;;;;;6186062;28;20062;-74
2022/04/27 19:29:39;;;;;;;9.27;6.00;;;;;;;;;;6188166;28;20073;-73
2022/04/27 19:32:41;;;;;;;8.82;6.20;;;;;;;;;;6189051;28;20321;-74
2022/04/27 19:35:43;;;;;;;10.63;6.43;;;;;;;;;;6189576;28;20105;-74